Weather at Rosita Airport

Public forecast

Using degrees Celsius for public forecast. Weather courtesy of forecast.io.

Closest aviation weather report (METAR) to Rosita Airport

Closest report is Puerto Cabezas Airport, 60.3 nm (111.7 km) E.

2022/11/29 12:00 (retrieved 26 minutes ago)

MNPC 291200Z 00000KT 7000 SCT016 23/22 Q1011 1CS300 HZ

Closest aviation forecast (TAF) to Rosita Airport

Forecast is more than 12 hours old.

Closest forecast is Puerto Cabezas Airport, 60.3 nm (111.7 km) E.

2022/11/28 18:54 (retrieved 18 hours ago)

TAF MNPC 281650Z 2818/2918 08006KT 6000 VCRA BKN017TCU BECMG 2821/2904 VRB04KT 4000 DZ/TSRA SCT014CB BKN016 BECMG 2913/2917 07008KT 8000 VCRA SCT018TCU